sensor_id;sensor_type;location;lat;lon;timestamp;temperature;humidity
7902;DHT22;3996;49.674;10.716;2023-11-19T00:01:08;6.50;77.10
7902;DHT22;3996;49.674;10.716;2023-11-19T00:03:34;6.50;77.00
7902;DHT22;3996;49.674;10.716;2023-11-19T00:06:01;6.50;76.90
7902;DHT22;3996;49.674;10.716;2023-11-19T00:08:26;6.50;76.60
7902;DHT22;3996;49.674;10.716;2023-11-19T00:10:52;6.50;76.70
7902;DHT22;3996;49.674;10.716;2023-11-19T00:13:18;6.50;76.60
7902;DHT22;3996;49.674;10.716;2023-11-19T00:15:43;6.60;76.90
7902;DHT22;3996;49.674;10.716;2023-11-19T00:18:10;6.50;76.40
7902;DHT22;3996;49.674;10.716;2023-11-19T00:20:36;6.50;77.10
7902;DHT22;3996;49.674;10.716;2023-11-19T00:23:01;6.50;76.90
7902;DHT22;3996;49.674;10.716;2023-11-19T00:25:27;6.50;77.30
7902;DHT22;3996;49.674;10.716;2023-11-19T00:27:53;6.50;77.30
7902;DHT22;3996;49.674;10.716;2023-11-19T00:30:19;6.50;77.20
7902;DHT22;3996;49.674;10.716;2023-11-19T00:32:44;6.50;77.10
7902;DHT22;3996;49.674;10.716;2023-11-19T00:35:10;6.50;77.10
7902;DHT22;3996;49.674;10.716;2023-11-19T00:37:36;6.50;77.40
7902;DHT22;3996;49.674;10.716;2023-11-19T00:40:02;6.50;77.30
7902;DHT22;3996;49.674;10.716;2023-11-19T00:42:30;6.50;77.70
7902;DHT22;3996;49.674;10.716;2023-11-19T00:44:56;6.50;77.70
7902;DHT22;3996;49.674;10.716;2023-11-19T00:47:21;6.50;77.80
7902;DHT22;3996;49.674;10.716;2023-11-19T00:49:47;6.50;78.30
7902;DHT22;3996;49.674;10.716;2023-11-19T00:52:16;6.50;78.50
7902;DHT22;3996;49.674;10.716;2023-11-19T00:54:42;6.50;78.70
7902;DHT22;3996;49.674;10.716;2023-11-19T00:57:07;6.50;78.90
7902;DHT22;3996;49.674;10.716;2023-11-19T00:59:33;6.50;78.50
7902;DHT22;3996;49.674;10.716;2023-11-19T01:01:59;6.50;77.90
7902;DHT22;3996;49.674;10.716;2023-11-19T01:04:35;6.60;77.90
7902;DHT22;3996;49.674;10.716;2023-11-19T01:07:04;6.60;77.80
7902;DHT22;3996;49.674;10.716;2023-11-19T01:09:33;6.60;78.10
7902;DHT22;3996;49.674;10.716;2023-11-19T01:12:00;6.60;77.90
7902;DHT22;3996;49.674;10.716;2023-11-19T01:14:26;6.60;77.80
7902;DHT22;3996;49.674;10.716;2023-11-19T01:16:51;6.60;78.00
7902;DHT22;3996;49.674;10.716;2023-11-19T01:19:19;6.60;77.80
7902;DHT22;3996;49.674;10.716;2023-11-19T01:21:44;6.60;77.90
7902;DHT22;3996;49.674;10.716;2023-11-19T01:24:10;6.60;78.20
7902;DHT22;3996;49.674;10.716;2023-11-19T01:26:38;6.70;78.40
7902;DHT22;3996;49.674;10.716;2023-11-19T01:29:03;6.70;78.30
7902;DHT22;3996;49.674;10.716;2023-11-19T01:31:30;6.70;78.40
7902;DHT22;3996;49.674;10.716;2023-11-19T01:33:57;6.70;78.30
7902;DHT22;3996;49.674;10.716;2023-11-19T01:36:22;6.70;78.40
7902;DHT22;3996;49.674;10.716;2023-11-19T01:38:48;6.70;78.50
7902;DHT22;3996;49.674;10.716;2023-11-19T01:41:14;6.70;78.80
7902;DHT22;3996;49.674;10.716;2023-11-19T01:43:39;6.70;78.80
7902;DHT22;3996;49.674;10.716;2023-11-19T01:46:08;6.70;79.30
7902;DHT22;3996;49.674;10.716;2023-11-19T01:48:37;6.70;79.20
7902;DHT22;3996;49.674;10.716;2023-11-19T01:51:05;6.70;79.30
7902;DHT22;3996;49.674;10.716;2023-11-19T01:53:32;6.70;79.50
7902;DHT22;3996;49.674;10.716;2023-11-19T01:55:58;6.70;79.30
7902;DHT22;3996;49.674;10.716;2023-11-19T01:58:23;6.80;79.40
7902;DHT22;3996;49.674;10.716;2023-11-19T02:00:49;6.80;79.30
7902;DHT22;3996;49.674;10.716;2023-11-19T02:03:15;6.80;79.40
7902;DHT22;3996;49.674;10.716;2023-11-19T02:05:41;6.80;79.40
7902;DHT22;3996;49.674;10.716;2023-11-19T02:08:06;6.80;79.60
7902;DHT22;3996;49.674;10.716;2023-11-19T02:10:32;6.80;79.80
7902;DHT22;3996;49.674;10.716;2023-11-19T02:12:58;6.80;79.60
7902;DHT22;3996;49.674;10.716;2023-11-19T02:15:24;6.80;80.00
7902;DHT22;3996;49.674;10.716;2023-11-19T02:17:50;6.80;79.70
7902;DHT22;3996;49.674;10.716;2023-11-19T02:20:15;6.90;79.40
7902;DHT22;3996;49.674;10.716;2023-11-19T02:22:41;6.90;79.40
7902;DHT22;3996;49.674;10.716;2023-11-19T02:25:07;6.90;79.40
7902;DHT22;3996;49.674;10.716;2023-11-19T02:27:40;6.90;79.10
7902;DHT22;3996;49.674;10.716;2023-11-19T02:30:06;6.80;79.30
7902;DHT22;3996;49.674;10.716;2023-11-19T02:32:34;6.80;79.40
7902;DHT22;3996;49.674;10.716;2023-11-19T02:34:59;6.80;80.00
7902;DHT22;3996;49.674;10.716;2023-11-19T02:37:25;6.80;80.10
7902;DHT22;3996;49.674;10.716;2023-11-19T02:39:51;6.80;80.30
7902;DHT22;3996;49.674;10.716;2023-11-19T02:42:16;6.90;80.50
7902;DHT22;3996;49.674;10.716;2023-11-19T02:44:45;6.90;80.30
7902;DHT22;3996;49.674;10.716;2023-11-19T02:47:11;6.90;80.10
7902;DHT22;3996;49.674;10.716;2023-11-19T02:49:36;6.90;80.10
7902;DHT22;3996;49.674;10.716;2023-11-19T02:52:02;6.90;80.10
7902;DHT22;3996;49.674;10.716;2023-11-19T02:54:30;6.90;80.20
7902;DHT22;3996;49.674;10.716;2023-11-19T02:57:00;6.90;80.10
7902;DHT22;3996;49.674;10.716;2023-11-19T02:59:27;6.90;80.20
7902;DHT22;3996;49.674;10.716;2023-11-19T03:01:56;6.90;80.60
7902;DHT22;3996;49.674;10.716;2023-11-19T03:04:22;6.80;80.60
7902;DHT22;3996;49.674;10.716;2023-11-19T03:06:48;6.90;80.80
7902;DHT22;3996;49.674;10.716;2023-11-19T03:09:14;6.90;81.10
7902;DHT22;3996;49.674;10.716;2023-11-19T03:11:39;6.90;80.70
7902;DHT22;3996;49.674;10.716;2023-11-19T03:14:05;6.90;80.70
7902;DHT22;3996;49.674;10.716;2023-11-19T03:16:30;6.90;81.30
7902;DHT22;3996;49.674;10.716;2023-11-19T03:18:56;6.80;81.10
7902;DHT22;3996;49.674;10.716;2023-11-19T03:21:28;6.90;81.20
7902;DHT22;3996;49.674;10.716;2023-11-19T03:23:54;6.80;81.50
7902;DHT22;3996;49.674;10.716;2023-11-19T03:26:19;6.70;81.90
7902;DHT22;3996;49.674;10.716;2023-11-19T03:28:44;6.80;82.60
7902;DHT22;3996;49.674;10.716;2023-11-19T03:31:10;6.80;82.50
7902;DHT22;3996;49.674;10.716;2023-11-19T03:33:35;6.80;82.70
7902;DHT22;3996;49.674;10.716;2023-11-19T03:36:02;6.80;82.90
7902;DHT22;3996;49.674;10.716;2023-11-19T03:38:28;6.90;83.10
7902;DHT22;3996;49.674;10.716;2023-11-19T03:40:53;6.90;83.10
7902;DHT22;3996;49.674;10.716;2023-11-19T03:43:19;6.90;83.10
7902;DHT22;3996;49.674;10.716;2023-11-19T03:45:44;6.90;82.80
7902;DHT22;3996;49.674;10.716;2023-11-19T03:48:10;7.00;82.70
7902;DHT22;3996;49.674;10.716;2023-11-19T03:50:35;7.00;82.70
7902;DHT22;3996;49.674;10.716;2023-11-19T03:53:01;7.00;82.50
7902;DHT22;3996;49.674;10.716;2023-11-19T03:55:28;7.00;82.80
7902;DHT22;3996;49.674;10.716;2023-11-19T03:57:54;7.00;83.00
7902;DHT22;3996;49.674;10.716;2023-11-19T04:00:20;7.00;83.10
7902;DHT22;3996;49.674;10.716;2023-11-19T04:02:46;7.00;83.10
7902;DHT22;3996;49.674;10.716;2023-11-19T04:05:12;7.00;83.20
7902;DHT22;3996;49.674;10.716;2023-11-19T04:07:37;7.00;83.20
7902;DHT22;3996;49.674;10.716;2023-11-19T04:10:03;7.10;83.30
7902;DHT22;3996;49.674;10.716;2023-11-19T04:12:29;7.10;82.80
7902;DHT22;3996;49.674;10.716;2023-11-19T04:14:54;7.10;82.90
7902;DHT22;3996;49.674;10.716;2023-11-19T04:17:21;7.10;82.70
7902;DHT22;3996;49.674;10.716;2023-11-19T04:19:48;7.10;82.80
7902;DHT22;3996;49.674;10.716;2023-11-19T04:22:14;7.10;82.80
7902;DHT22;3996;49.674;10.716;2023-11-19T04:24:39;7.10;82.90
7902;DHT22;3996;49.674;10.716;2023-11-19T04:27:06;7.10;82.80
7902;DHT22;3996;49.674;10.716;2023-11-19T04:29:31;7.20;82.90
7902;DHT22;3996;49.674;10.716;2023-11-19T04:31:57;7.20;82.90
7902;DHT22;3996;49.674;10.716;2023-11-19T04:34:23;7.20;82.40
7902;DHT22;3996;49.674;10.716;2023-11-19T04:36:49;7.20;82.30
7902;DHT22;3996;49.674;10.716;2023-11-19T04:39:14;7.20;82.30
7902;DHT22;3996;49.674;10.716;2023-11-19T04:41:50;7.20;82.40
7902;DHT22;3996;49.674;10.716;2023-11-19T04:44:17;7.20;82.50
7902;DHT22;3996;49.674;10.716;2023-11-19T04:46:43;7.20;82.30
7902;DHT22;3996;49.674;10.716;2023-11-19T04:49:09;7.20;82.40
7902;DHT22;3996;49.674;10.716;2023-11-19T04:51:42;7.20;82.70
7902;DHT22;3996;49.674;10.716;2023-11-19T04:54:08;7.20;83.10
7902;DHT22;3996;49.674;10.716;2023-11-19T04:56:37;7.20;83.40
7902;DHT22;3996;49.674;10.716;2023-11-19T04:59:03;7.20;83.40
7902;DHT22;3996;49.674;10.716;2023-11-19T05:01:28;7.20;83.70
7902;DHT22;3996;49.674;10.716;2023-11-19T05:03:54;7.20;83.80
7902;DHT22;3996;49.674;10.716;2023-11-19T05:06:19;7.20;83.70
7902;DHT22;3996;49.674;10.716;2023-11-19T05:08:45;7.30;83.80
7902;DHT22;3996;49.674;10.716;2023-11-19T05:11:11;7.30;84.00
7902;DHT22;3996;49.674;10.716;2023-11-19T05:13:37;7.30;84.20
7902;DHT22;3996;49.674;10.716;2023-11-19T05:16:03;7.30;84.30
7902;DHT22;3996;49.674;10.716;2023-11-19T05:18:29;7.30;84.70
7902;DHT22;3996;49.674;10.716;2023-11-19T05:20:54;7.30;85.10
7902;DHT22;3996;49.674;10.716;2023-11-19T05:23:19;7.40;85.50
7902;DHT22;3996;49.674;10.716;2023-11-19T05:25:45;7.40;86.40
7902;DHT22;3996;49.674;10.716;2023-11-19T05:28:11;7.40;86.00
7902;DHT22;3996;49.674;10.716;2023-11-19T05:30:36;7.50;86.30
7902;DHT22;3996;49.674;10.716;2023-11-19T05:33:02;7.50;86.50
7902;DHT22;3996;49.674;10.716;2023-11-19T05:35:27;7.60;86.70
7902;DHT22;3996;49.674;10.716;2023-11-19T05:37:53;7.60;86.90
7902;DHT22;3996;49.674;10.716;2023-11-19T05:40:18;7.60;87.30
7902;DHT22;3996;49.674;10.716;2023-11-19T05:42:45;7.70;87.50
7902;DHT22;3996;49.674;10.716;2023-11-19T05:45:11;7.70;87.70
7902;DHT22;3996;49.674;10.716;2023-11-19T05:47:37;7.80;88.00
7902;DHT22;3996;49.674;10.716;2023-11-19T05:50:02;7.90;89.10
7902;DHT22;3996;49.674;10.716;2023-11-19T05:52:29;8.20;90.00
7902;DHT22;3996;49.674;10.716;2023-11-19T05:55:01;8.30;90.30
7902;DHT22;3996;49.674;10.716;2023-11-19T05:57:34;8.50;90.50
7902;DHT22;3996;49.674;10.716;2023-11-19T06:00:00;8.60;90.70
7902;DHT22;3996;49.674;10.716;2023-11-19T06:02:25;8.70;90.80
7902;DHT22;3996;49.674;10.716;2023-11-19T06:04:52;8.80;90.90
7902;DHT22;3996;49.674;10.716;2023-11-19T06:07:18;8.80;91.00
7902;DHT22;3996;49.674;10.716;2023-11-19T06:09:44;8.90;91.10
7902;DHT22;3996;49.674;10.716;2023-11-19T06:12:09;9.00;91.20
7902;DHT22;3996;49.674;10.716;2023-11-19T06:14:35;9.10;91.30
7902;DHT22;3996;49.674;10.716;2023-11-19T06:17:00;9.10;91.40
7902;DHT22;3996;49.674;10.716;2023-11-19T06:19:25;9.10;91.40
7902;DHT22;3996;49.674;10.716;2023-11-19T06:21:51;9.20;91.50
7902;DHT22;3996;49.674;10.716;2023-11-19T06:24:16;9.20;91.50
7902;DHT22;3996;49.674;10.716;2023-11-19T06:26:42;9.20;91.50
7902;DHT22;3996;49.674;10.716;2023-11-19T06:29:07;9.30;91.70
7902;DHT22;3996;49.674;10.716;2023-11-19T06:31:33;9.30;91.60
7902;DHT22;3996;49.674;10.716;2023-11-19T06:33:58;9.40;91.70
7902;DHT22;3996;49.674;10.716;2023-11-19T06:36:24;9.40;91.80
7902;DHT22;3996;49.674;10.716;2023-11-19T06:38:49;9.40;91.80
7902;DHT22;3996;49.674;10.716;2023-11-19T06:41:15;9.50;91.80
7902;DHT22;3996;49.674;10.716;2023-11-19T06:43:40;9.50;91.90
7902;DHT22;3996;49.674;10.716;2023-11-19T06:46:13;9.50;91.90
7902;DHT22;3996;49.674;10.716;2023-11-19T06:48:39;9.50;91.90
7902;DHT22;3996;49.674;10.716;2023-11-19T06:51:05;9.60;92.00
7902;DHT22;3996;49.674;10.716;2023-11-19T06:53:31;9.60;92.00
7902;DHT22;3996;49.674;10.716;2023-11-19T06:55:56;9.60;92.00
7902;DHT22;3996;49.674;10.716;2023-11-19T06:58:22;9.70;92.10
7902;DHT22;3996;49.674;10.716;2023-11-19T07:00:47;9.60;92.10
7902;DHT22;3996;49.674;10.716;2023-11-19T07:03:14;9.70;92.10
7902;DHT22;3996;49.674;10.716;2023-11-19T07:05:41;9.70;92.10
7902;DHT22;3996;49.674;10.716;2023-11-19T07:08:06;9.80;92.20
7902;DHT22;3996;49.674;10.716;2023-11-19T07:10:35;9.80;92.20
7902;DHT22;3996;49.674;10.716;2023-11-19T07:13:00;9.80;92.20
7902;DHT22;3996;49.674;10.716;2023-11-19T07:15:26;9.90;92.30
7902;DHT22;3996;49.674;10.716;2023-11-19T07:17:51;9.90;92.30
7902;DHT22;3996;49.674;10.716;2023-11-19T07:20:19;9.90;92.30
7902;DHT22;3996;49.674;10.716;2023-11-19T07:22:45;9.90;92.30
7902;DHT22;3996;49.674;10.716;2023-11-19T07:25:12;10.00;91.90
7902;DHT22;3996;49.674;10.716;2023-11-19T07:27:38;10.00;91.90
7902;DHT22;3996;49.674;10.716;2023-11-19T07:30:04;10.00;92.00
7902;DHT22;3996;49.674;10.716;2023-11-19T07:32:29;10.00;92.00
7902;DHT22;3996;49.674;10.716;2023-11-19T07:34:55;10.00;92.00
7902;DHT22;3996;49.674;10.716;2023-11-19T07:37:21;10.00;92.00
7902;DHT22;3996;49.674;10.716;2023-11-19T07:39:47;10.10;92.00
7902;DHT22;3996;49.674;10.716;2023-11-19T07:42:13;10.10;92.10
7902;DHT22;3996;49.674;10.716;2023-11-19T07:44:38;10.10;92.10
7902;DHT22;3996;49.674;10.716;2023-11-19T07:47:04;10.20;92.10
7902;DHT22;3996;49.674;10.716;2023-11-19T07:49:29;10.20;92.10
7902;DHT22;3996;49.674;10.716;2023-11-19T07:51:56;10.20;92.10
7902;DHT22;3996;49.674;10.716;2023-11-19T07:54:21;10.20;92.20
7902;DHT22;3996;49.674;10.716;2023-11-19T07:56:47;10.20;92.20
7902;DHT22;3996;49.674;10.716;2023-11-19T07:59:12;10.30;92.20
7902;DHT22;3996;49.674;10.716;2023-11-19T08:01:38;10.30;92.20
7902;DHT22;3996;49.674;10.716;2023-11-19T08:04:03;10.30;92.20
7902;DHT22;3996;49.674;10.716;2023-11-19T08:06:29;10.30;92.30
7902;DHT22;3996;49.674;10.716;2023-11-19T08:08:55;10.30;92.30
7902;DHT22;3996;49.674;10.716;2023-11-19T08:11:20;10.30;92.30
7902;DHT22;3996;49.674;10.716;2023-11-19T08:13:46;10.30;92.30
7902;DHT22;3996;49.674;10.716;2023-11-19T08:16:11;10.30;92.30
7902;DHT22;3996;49.674;10.716;2023-11-19T08:18:37;10.30;92.30
7902;DHT22;3996;49.674;10.716;2023-11-19T08:21:02;10.30;92.30
7902;DHT22;3996;49.674;10.716;2023-11-19T08:23:30;10.30;92.30
7902;DHT22;3996;49.674;10.716;2023-11-19T08:25:55;10.30;92.30
7902;DHT22;3996;49.674;10.716;2023-11-19T08:28:21;10.40;92.40
7902;DHT22;3996;49.674;10.716;2023-11-19T08:30:46;10.40;92.40
7902;DHT22;3996;49.674;10.716;2023-11-19T08:33:12;10.50;92.50
7902;DHT22;3996;49.674;10.716;2023-11-19T08:35:37;10.50;92.50
7902;DHT22;3996;49.674;10.716;2023-11-19T08:38:03;10.70;92.60
7902;DHT22;3996;49.674;10.716;2023-11-19T08:40:28;10.70;92.60
7902;DHT22;3996;49.674;10.716;2023-11-19T08:42:55;10.80;92.70
7902;DHT22;3996;49.674;10.716;2023-11-19T08:45:21;10.90;92.80
7902;DHT22;3996;49.674;10.716;2023-11-19T08:47:46;11.00;92.90
7902;DHT22;3996;49.674;10.716;2023-11-19T08:50:12;11.10;93.00
7902;DHT22;3996;49.674;10.716;2023-11-19T08:52:37;11.10;92.90
7902;DHT22;3996;49.674;10.716;2023-11-19T08:55:03;11.10;92.70
7902;DHT22;3996;49.674;10.716;2023-11-19T08:57:30;11.10;92.70
7902;DHT22;3996;49.674;10.716;2023-11-19T08:59:56;11.10;92.70
7902;DHT22;3996;49.674;10.716;2023-11-19T09:02:21;11.20;92.60
7902;DHT22;3996;49.674;10.716;2023-11-19T09:04:47;11.20;92.50
7902;DHT22;3996;49.674;10.716;2023-11-19T09:07:12;11.20;92.30
7902;DHT22;3996;49.674;10.716;2023-11-19T09:09:38;11.30;92.40
7902;DHT22;3996;49.674;10.716;2023-11-19T09:12:03;11.60;92.40
7902;DHT22;3996;49.674;10.716;2023-11-19T09:14:29;11.70;91.60
7902;DHT22;3996;49.674;10.716;2023-11-19T09:16:55;11.70;90.70
7902;DHT22;3996;49.674;10.716;2023-11-19T09:19:21;11.80;90.10
7902;DHT22;3996;49.674;10.716;2023-11-19T09:21:46;11.80;90.00
7902;DHT22;3996;49.674;10.716;2023-11-19T09:24:14;11.80;90.30
7902;DHT22;3996;49.674;10.716;2023-11-19T09:26:40;11.80;89.20
7902;DHT22;3996;49.674;10.716;2023-11-19T09:29:09;11.90;88.90
7902;DHT22;3996;49.674;10.716;2023-11-19T09:31:35;12.00;89.60
7902;DHT22;3996;49.674;10.716;2023-11-19T09:34:02;12.00;90.10
7902;DHT22;3996;49.674;10.716;2023-11-19T09:36:28;12.20;88.60
7902;DHT22;3996;49.674;10.716;2023-11-19T09:38:53;12.50;89.90
7902;DHT22;3996;49.674;10.716;2023-11-19T09:41:19;12.80;89.00
7902;DHT22;3996;49.674;10.716;2023-11-19T09:43:44;13.00;88.10
7902;DHT22;3996;49.674;10.716;2023-11-19T09:46:10;13.10;83.00
7902;DHT22;3996;49.674;10.716;2023-11-19T09:48:41;13.30;79.10
7902;DHT22;3996;49.674;10.716;2023-11-19T09:51:07;13.60;72.60
7902;DHT22;3996;49.674;10.716;2023-11-19T09:53:34;13.60;69.00
7902;DHT22;3996;49.674;10.716;2023-11-19T09:56:00;13.60;69.60
7902;DHT22;3996;49.674;10.716;2023-11-19T09:58:28;13.70;64.20
7902;DHT22;3996;49.674;10.716;2023-11-19T10:00:54;13.90;63.80
7902;DHT22;3996;49.674;10.716;2023-11-19T10:03:19;14.10;61.40
7902;DHT22;3996;49.674;10.716;2023-11-19T10:05:46;14.50;59.50
7902;DHT22;3996;49.674;10.716;2023-11-19T10:08:12;15.00;58.20
7902;DHT22;3996;49.674;10.716;2023-11-19T10:10:37;15.30;50.80
7902;DHT22;3996;49.674;10.716;2023-11-19T10:13:03;15.50;51.70
7902;DHT22;3996;49.674;10.716;2023-11-19T10:15:29;15.70;50.70
7902;DHT22;3996;49.674;10.716;2023-11-19T10:17:58;15.70;46.40
7902;DHT22;3996;49.674;10.716;2023-11-19T10:20:24;15.50;49.50
7902;DHT22;3996;49.674;10.716;2023-11-19T10:22:55;15.30;47.40
7902;DHT22;3996;49.674;10.716;2023-11-19T10:25:25;15.20;50.40
7902;DHT22;3996;49.674;10.716;2023-11-19T10:27:51;15.10;47.10
7902;DHT22;3996;49.674;10.716;2023-11-19T10:30:34;15.00;48.50
7902;DHT22;3996;49.674;10.716;2023-11-19T10:35:29;14.80;50.30
7902;DHT22;3996;49.674;10.716;2023-11-19T10:37:54;14.80;50.70
7902;DHT22;3996;49.674;10.716;2023-11-19T10:40:20;14.70;51.30
7902;DHT22;3996;49.674;10.716;2023-11-19T10:42:45;14.50;51.40
7902;DHT22;3996;49.674;10.716;2023-11-19T10:45:21;14.30;53.90
7902;DHT22;3996;49.674;10.716;2023-11-19T10:47:47;14.10;53.30
7902;DHT22;3996;49.674;10.716;2023-11-19T10:50:12;13.80;54.80
7902;DHT22;3996;49.674;10.716;2023-11-19T10:52:38;13.70;56.90
7902;DHT22;3996;49.674;10.716;2023-11-19T10:55:04;13.60;59.20
7902;DHT22;3996;49.674;10.716;2023-11-19T10:57:31;13.60;60.10
7902;DHT22;3996;49.674;10.716;2023-11-19T11:00:00;13.80;59.60
7902;DHT22;3996;49.674;10.716;2023-11-19T11:02:26;14.00;58.20
7902;DHT22;3996;49.674;10.716;2023-11-19T11:04:52;14.20;55.80
7902;DHT22;3996;49.674;10.716;2023-11-19T11:07:19;14.30;55.00
7902;DHT22;3996;49.674;10.716;2023-11-19T11:09:46;14.30;54.40
7902;DHT22;3996;49.674;10.716;2023-11-19T11:12:14;14.20;55.30
7902;DHT22;3996;49.674;10.716;2023-11-19T11:14:40;14.10;53.00
7902;DHT22;3996;49.674;10.716;2023-11-19T11:17:07;14.10;53.30
7902;DHT22;3996;49.674;10.716;2023-11-19T11:19:34;14.30;50.10
7902;DHT22;3996;49.674;10.716;2023-11-19T11:22:01;14.30;50.60
7902;DHT22;3996;49.674;10.716;2023-11-19T11:24:41;14.30;50.70
7902;DHT22;3996;49.674;10.716;2023-11-19T11:37:18;13.70;48.80
7902;DHT22;3996;49.674;10.716;2023-11-19T11:39:46;13.80;49.80
7902;DHT22;3996;49.674;10.716;2023-11-19T11:47:26;13.50;52.50
7902;DHT22;3996;49.674;10.716;2023-11-19T11:49:51;13.40;55.00
7902;DHT22;3996;49.674;10.716;2023-11-19T11:52:17;13.20;57.30
7902;DHT22;3996;49.674;10.716;2023-11-19T11:54:43;13.10;60.50
7902;DHT22;3996;49.674;10.716;2023-11-19T11:57:10;13.00;62.70
7902;DHT22;3996;49.674;10.716;2023-11-19T11:59:36;12.90;65.60
7902;DHT22;3996;49.674;10.716;2023-11-19T12:02:03;12.80;67.10
7902;DHT22;3996;49.674;10.716;2023-11-19T12:04:28;12.80;71.00
7902;DHT22;3996;49.674;10.716;2023-11-19T12:07:06;12.70;72.10
7902;DHT22;3996;49.674;10.716;2023-11-19T12:09:32;12.60;72.60
7902;DHT22;3996;49.674;10.716;2023-11-19T12:20:01;12.50;76.80
7902;DHT22;3996;49.674;10.716;2023-11-19T12:22:27;12.40;77.90
7902;DHT22;3996;49.674;10.716;2023-11-19T12:24:55;12.50;78.00
7902;DHT22;3996;49.674;10.716;2023-11-19T12:27:21;12.40;78.10
7902;DHT22;3996;49.674;10.716;2023-11-19T12:29:50;12.50;78.10
7902;DHT22;3996;49.674;10.716;2023-11-19T12:32:15;12.60;78.00
7902;DHT22;3996;49.674;10.716;2023-11-19T12:34:41;12.80;80.70
7902;DHT22;3996;49.674;10.716;2023-11-19T12:37:07;12.90;77.10
7902;DHT22;3996;49.674;10.716;2023-11-19T12:39:35;12.90;74.20
7902;DHT22;3996;49.674;10.716;2023-11-19T12:42:00;13.00;72.70
7902;DHT22;3996;49.674;10.716;2023-11-19T12:44:26;13.00;70.20
7902;DHT22;3996;49.674;10.716;2023-11-19T12:47:01;13.00;71.00
7902;DHT22;3996;49.674;10.716;2023-11-19T12:49:27;12.90;70.20
7902;DHT22;3996;49.674;10.716;2023-11-19T12:51:52;13.10;74.00
7902;DHT22;3996;49.674;10.716;2023-11-19T12:54:18;13.30;77.60
7902;DHT22;3996;49.674;10.716;2023-11-19T12:56:53;13.40;70.80
7902;DHT22;3996;49.674;10.716;2023-11-19T12:59:19;13.50;71.00
7902;DHT22;3996;49.674;10.716;2023-11-19T13:01:59;13.30;67.50
7902;DHT22;3996;49.674;10.716;2023-11-19T13:04:29;13.30;70.00
7902;DHT22;3996;49.674;10.716;2023-11-19T13:06:56;13.20;68.60
7902;DHT22;3996;49.674;10.716;2023-11-19T13:09:23;13.20;67.50
7902;DHT22;3996;49.674;10.716;2023-11-19T13:11:50;13.20;68.60
7902;DHT22;3996;49.674;10.716;2023-11-19T13:14:16;13.30;68.70
7902;DHT22;3996;49.674;10.716;2023-11-19T13:16:42;13.20;66.10
7902;DHT22;3996;49.674;10.716;2023-11-19T13:19:14;13.20;66.20
7902;DHT22;3996;49.674;10.716;2023-11-19T13:21:39;13.20;66.10
7902;DHT22;3996;49.674;10.716;2023-11-19T13:24:08;13.20;65.70
7902;DHT22;3996;49.674;10.716;2023-11-19T13:26:34;13.20;66.00
7902;DHT22;3996;49.674;10.716;2023-11-19T13:29:00;13.20;65.80
7902;DHT22;3996;49.674;10.716;2023-11-19T13:31:26;13.10;65.30
7902;DHT22;3996;49.674;10.716;2023-11-19T13:33:51;13.10;66.10
7902;DHT22;3996;49.674;10.716;2023-11-19T13:36:17;13.00;66.40
7902;DHT22;3996;49.674;10.716;2023-11-19T13:38:42;13.00;63.60
7902;DHT22;3996;49.674;10.716;2023-11-19T13:41:09;12.90;62.40
7902;DHT22;3996;49.674;10.716;2023-11-19T13:43:36;12.90;62.90
7902;DHT22;3996;49.674;10.716;2023-11-19T13:46:02;12.80;61.70
7902;DHT22;3996;49.674;10.716;2023-11-19T13:48:27;12.80;62.70
7902;DHT22;3996;49.674;10.716;2023-11-19T13:50:54;12.70;63.10
7902;DHT22;3996;49.674;10.716;2023-11-19T13:53:20;12.60;64.30
7902;DHT22;3996;49.674;10.716;2023-11-19T13:55:45;12.60;64.40
7902;DHT22;3996;49.674;10.716;2023-11-19T13:58:11;12.50;65.80
7902;DHT22;3996;49.674;10.716;2023-11-19T14:00:37;12.40;66.20
7902;DHT22;3996;49.674;10.716;2023-11-19T14:03:02;12.40;67.10
7902;DHT22;3996;49.674;10.716;2023-11-19T14:05:28;12.40;65.20
7902;DHT22;3996;49.674;10.716;2023-11-19T14:07:53;12.30;66.90
7902;DHT22;3996;49.674;10.716;2023-11-19T14:10:22;12.30;67.10
7902;DHT22;3996;49.674;10.716;2023-11-19T14:12:47;12.30;69.70
7902;DHT22;3996;49.674;10.716;2023-11-19T14:15:13;12.30;69.20
7902;DHT22;3996;49.674;10.716;2023-11-19T14:17:39;12.30;68.30
7902;DHT22;3996;49.674;10.716;2023-11-19T14:20:05;12.30;69.00
7902;DHT22;3996;49.674;10.716;2023-11-19T14:22:41;12.30;69.30
7902;DHT22;3996;49.674;10.716;2023-11-19T14:25:07;12.30;70.10
7902;DHT22;3996;49.674;10.716;2023-11-19T14:27:36;12.30;71.60
7902;DHT22;3996;49.674;10.716;2023-11-19T14:30:02;12.30;71.30
7902;DHT22;3996;49.674;10.716;2023-11-19T14:32:28;12.30;71.60
7902;DHT22;3996;49.674;10.716;2023-11-19T14:34:53;12.20;71.60
7902;DHT22;3996;49.674;10.716;2023-11-19T14:37:18;12.20;71.00
7902;DHT22;3996;49.674;10.716;2023-11-19T14:39:44;12.30;71.30
7902;DHT22;3996;49.674;10.716;2023-11-19T14:42:11;12.30;71.00
7902;DHT22;3996;49.674;10.716;2023-11-19T14:44:36;12.30;70.40
7902;DHT22;3996;49.674;10.716;2023-11-19T14:47:02;12.20;71.00
7902;DHT22;3996;49.674;10.716;2023-11-19T14:49:28;12.20;71.90
7902;DHT22;3996;49.674;10.716;2023-11-19T14:51:53;12.10;72.30
7902;DHT22;3996;49.674;10.716;2023-11-19T14:54:18;12.00;73.10
7902;DHT22;3996;49.674;10.716;2023-11-19T14:56:44;12.00;72.80
7902;DHT22;3996;49.674;10.716;2023-11-19T14:59:10;12.00;72.30
7902;DHT22;3996;49.674;10.716;2023-11-19T15:01:35;12.00;72.20
7902;DHT22;3996;49.674;10.716;2023-11-19T15:04:01;11.90;72.20
7902;DHT22;3996;49.674;10.716;2023-11-19T15:06:26;11.90;72.40
7902;DHT22;3996;49.674;10.716;2023-11-19T15:08:52;11.90;72.30
7902;DHT22;3996;49.674;10.716;2023-11-19T15:11:18;11.80;72.40
7902;DHT22;3996;49.674;10.716;2023-11-19T15:13:43;11.80;73.00
7902;DHT22;3996;49.674;10.716;2023-11-19T15:16:09;11.80;73.50
7902;DHT22;3996;49.674;10.716;2023-11-19T15:18:39;11.80;71.90
7902;DHT22;3996;49.674;10.716;2023-11-19T15:21:05;11.80;70.40
7902;DHT22;3996;49.674;10.716;2023-11-19T15:23:30;11.80;69.50
7902;DHT22;3996;49.674;10.716;2023-11-19T15:25:56;11.80;67.90
7902;DHT22;3996;49.674;10.716;2023-11-19T15:28:21;11.80;62.00
7902;DHT22;3996;49.674;10.716;2023-11-19T15:30:47;11.90;60.10
7902;DHT22;3996;49.674;10.716;2023-11-19T15:33:13;11.90;56.80
7902;DHT22;3996;49.674;10.716;2023-11-19T15:35:38;11.90;55.50
7902;DHT22;3996;49.674;10.716;2023-11-19T15:38:04;11.90;51.60
7902;DHT22;3996;49.674;10.716;2023-11-19T15:40:30;11.90;51.60
7902;DHT22;3996;49.674;10.716;2023-11-19T15:42:56;11.90;50.20
7902;DHT22;3996;49.674;10.716;2023-11-19T15:45:22;11.90;51.00
7902;DHT22;3996;49.674;10.716;2023-11-19T15:47:49;11.90;51.40
7902;DHT22;3996;49.674;10.716;2023-11-19T15:50:14;11.80;50.90
7902;DHT22;3996;49.674;10.716;2023-11-19T15:52:40;11.80;50.90
7902;DHT22;3996;49.674;10.716;2023-11-19T15:55:05;11.70;51.60
7902;DHT22;3996;49.674;10.716;2023-11-19T15:57:31;11.70;52.90
7902;DHT22;3996;49.674;10.716;2023-11-19T15:59:56;11.60;53.60
7902;DHT22;3996;49.674;10.716;2023-11-19T16:02:22;11.50;54.30
7902;DHT22;3996;49.674;10.716;2023-11-19T16:04:47;11.50;55.60
7902;DHT22;3996;49.674;10.716;2023-11-19T16:07:13;11.40;56.80
7902;DHT22;3996;49.674;10.716;2023-11-19T16:09:39;11.30;57.00
7902;DHT22;3996;49.674;10.716;2023-11-19T16:12:05;11.20;58.70